sensor_id;sensor_type;location;lat;lon;timestamp;pressure;altitude;pressure_sealevel;temperature;humidity
3590;BME280;1809;48.470;9.226;2023-02-10T00:01:17;102410.25;;;-3.83;100.00
3590;BME280;1809;48.470;9.226;2023-02-10T00:03:43;103070.66;;;-3.89;100.00
3590;BME280;1809;48.470;9.226;2023-02-10T00:06:09;103739.72;;;-3.89;100.00
3590;BME280;1809;48.470;9.226;2023-02-10T00:08:36;104057.41;;;-3.99;100.00
3590;BME280;1809;48.470;9.226;2023-02-10T00:11:05;104720.44;;;-4.03;100.00
3590;BME280;1809;48.470;9.226;2023-02-10T00:13:30;105372.97;;;-4.13;100.00
3590;BME280;1809;48.470;9.226;2023-02-10T00:16:00;107402.38;;;-4.03;100.00
3590;BME280;1809;48.470;9.226;2023-02-10T00:18:27;108760.91;;;-3.93;100.00
3590;BME280;1809;48.470;9.226;2023-02-10T00:20:53;108775.38;;;-3.85;100.00
3590;BME280;1809;48.470;9.226;2023-02-10T00:23:18;107772.66;;;-3.83;100.00
3590;BME280;1809;48.470;9.226;2023-02-10T00:25:44;107450.66;;;-3.75;100.00
3590;BME280;1809;48.470;9.226;2023-02-10T00:28:09;105432.59;;;-3.79;100.00
3590;BME280;1809;48.470;9.226;2023-02-10T00:30:34;104421.03;;;-3.83;100.00
3590;BME280;1809;48.470;9.226;2023-02-10T00:33:01;103419.38;;;-3.81;100.00
3590;BME280;1809;48.470;9.226;2023-02-10T00:35:26;102396.63;;;-3.91;100.00
3590;BME280;1809;48.470;9.226;2023-02-10T00:37:51;102385.56;;;-3.98;100.00
3590;BME280;1809;48.470;9.226;2023-02-10T00:40:17;103391.00;;;-3.97;100.00
3590;BME280;1809;48.470;9.226;2023-02-10T00:42:43;104741.34;;;-3.91;100.00
3590;BME280;1809;48.470;9.226;2023-02-10T00:45:09;104408.03;;;-3.90;100.00
3590;BME280;1809;48.470;9.226;2023-02-10T00:47:34;104085.13;;;-3.83;100.00
3590;BME280;1809;48.470;9.226;2023-02-10T00:49:59;103415.09;;;-3.83;100.00
3590;BME280;1809;48.470;9.226;2023-02-10T00:52:25;103068.97;;;-3.90;100.00
3590;BME280;1809;48.470;9.226;2023-02-10T00:54:50;103064.66;;;-3.92;100.00
3590;BME280;1809;48.470;9.226;2023-02-10T00:57:15;103729.34;;;-3.95;100.00
3590;BME280;1809;48.470;9.226;2023-02-10T00:59:41;104084.25;;;-3.84;100.00
3590;BME280;1809;48.470;9.226;2023-02-10T01:02:06;102749.44;;;-3.81;100.00
3590;BME280;1809;48.470;9.226;2023-02-10T01:04:32;100733.69;;;-3.85;100.00
3590;BME280;1809;48.470;9.226;2023-02-10T01:06:57;99390.09;;;-3.88;100.00
3590;BME280;1809;48.470;9.226;2023-02-10T01:09:23;98044.69;;;-3.92;100.00
3590;BME280;1809;48.470;9.226;2023-02-10T01:11:48;97021.47;;;-4.05;100.00
3590;BME280;1809;48.470;9.226;2023-02-10T01:14:14;97695.69;;;-4.01;100.00
3590;BME280;1809;48.470;9.226;2023-02-10T01:16:40;97006.16;;;-4.14;100.00
3590;BME280;1809;48.470;9.226;2023-02-10T01:19:05;97324.19;;;-4.24;100.00
3590;BME280;1809;48.470;9.226;2023-02-10T01:21:31;98998.75;;;-4.22;100.00
3590;BME280;1809;48.470;9.226;2023-02-10T01:23:56;101012.16;;;-4.18;100.00
3590;BME280;1809;48.470;9.226;2023-02-10T01:26:22;102376.19;;;-4.03;100.00
3590;BME280;1809;48.470;9.226;2023-02-10T01:28:47;101710.91;;;-4.01;100.00
3590;BME280;1809;48.470;9.226;2023-02-10T01:31:17;102053.31;;;-3.96;100.00
3590;BME280;1809;48.470;9.226;2023-02-10T01:33:44;100382.28;;;-3.95;100.00
3590;BME280;1809;48.470;9.226;2023-02-10T01:36:11;99033.28;;;-4.01;100.00
3590;BME280;1809;48.470;9.226;2023-02-10T01:38:37;98687.38;;;-4.08;100.00
3590;BME280;1809;48.470;9.226;2023-02-10T01:41:04;97993.44;;;-4.24;100.00
3590;BME280;1809;48.470;9.226;2023-02-10T01:43:30;98652.94;;;-4.29;100.00
3590;BME280;1809;48.470;9.226;2023-02-10T01:45:56;100341.41;;;-4.19;100.00
3590;BME280;1809;48.470;9.226;2023-02-10T01:48:22;101015.50;;;-4.16;100.00
3590;BME280;1809;48.470;9.226;2023-02-10T01:50:53;101020.53;;;-4.13;100.00
3590;BME280;1809;48.470;9.226;2023-02-10T01:53:21;101027.25;;;-4.09;100.00
3590;BME280;1809;48.470;9.226;2023-02-10T01:55:52;99998.63;;;-4.24;100.00
3590;BME280;1809;48.470;9.226;2023-02-10T01:58:21;100680.94;;;-4.16;100.00
3590;BME280;1809;48.470;9.226;2023-02-10T02:00:46;100690.13;;;-4.11;100.00
3590;BME280;1809;48.470;9.226;2023-02-10T02:03:13;100343.09;;;-4.18;100.00
3590;BME280;1809;48.470;9.226;2023-02-10T02:05:40;100338.06;;;-4.21;100.00
3590;BME280;1809;48.470;9.226;2023-02-10T02:10:38;101348.44;;;-4.17;100.00
3590;BME280;1809;48.470;9.226;2023-02-10T02:13:17;100993.66;;;-4.29;100.00
3590;BME280;1809;48.470;9.226;2023-02-10T02:15:53;101319.75;;;-4.35;100.00
3590;BME280;1809;48.470;9.226;2023-02-10T02:18:46;102670.00;;;-4.27;100.00
3590;BME280;1809;48.470;9.226;2023-02-10T02:21:38;103673.31;;;-4.28;100.00
3590;BME280;1809;48.470;9.226;2023-02-10T02:24:22;104018.47;;;-4.22;100.00
3590;BME280;1809;48.470;9.226;2023-02-10T02:32:43;101684.72;;;-4.16;100.00
3590;BME280;1809;48.470;9.226;2023-02-10T02:35:15;101004.56;;;-4.23;100.00
3590;BME280;1809;48.470;9.226;2023-02-10T02:37:44;100992.00;;;-4.30;100.00
3590;BME280;1809;48.470;9.226;2023-02-10T02:40:12;101659.34;;;-4.31;100.00
3590;BME280;1809;48.470;9.226;2023-02-10T02:42:38;102673.41;;;-4.25;100.00
3590;BME280;1809;48.470;9.226;2023-02-10T02:45:10;102676.84;;;-4.23;100.00
3590;BME280;1809;48.470;9.226;2023-02-10T02:58:06;102668.28;;;-4.28;100.00
3590;BME280;1809;48.470;9.226;2023-02-10T03:00:35;103007.25;;;-4.26;100.00
3590;BME280;1809;48.470;9.226;2023-02-10T03:03:01;102992.69;;;-4.35;100.00
3590;BME280;1809;48.470;9.226;2023-02-10T03:05:29;102982.41;;;-4.41;100.00
3590;BME280;1809;48.470;9.226;2023-02-10T03:07:55;102293.66;;;-4.52;100.00
3590;BME280;1809;48.470;9.226;2023-02-10T03:10:21;102279.19;;;-4.61;100.00
3590;BME280;1809;48.470;9.226;2023-02-10T03:12:47;102262.16;;;-4.71;100.00
3590;BME280;1809;48.470;9.226;2023-02-10T03:15:12;102258.75;;;-4.73;100.00
3590;BME280;1809;48.470;9.226;2023-02-10T03:17:38;102241.75;;;-4.83;100.00
3590;BME280;1809;48.470;9.226;2023-02-10T03:20:03;102226.44;;;-4.92;100.00
3590;BME280;1809;48.470;9.226;2023-02-10T03:22:29;103910.31;;;-4.85;100.00
3590;BME280;1809;48.470;9.226;2023-02-10T03:24:54;103556.03;;;-4.97;100.00
3590;BME280;1809;48.470;9.226;2023-02-10T03:27:20;103877.44;;;-5.04;100.00
3590;BME280;1809;48.470;9.226;2023-02-10T03:29:45;104868.50;;;-5.11;100.00
3590;BME280;1809;48.470;9.226;2023-02-10T03:32:13;106195.84;;;-5.17;100.00
3590;BME280;1809;48.470;9.226;2023-02-10T03:34:39;107183.47;;;-5.26;100.00
3590;BME280;1809;48.470;9.226;2023-02-10T03:37:04;108511.13;;;-5.32;100.00
3590;BME280;1809;48.470;9.226;2023-02-10T03:39:29;109841.75;;;-5.37;100.00
3590;BME280;1809;48.470;9.226;2023-02-10T03:41:55;110824.94;;;-5.49;100.00
3590;BME280;1809;48.470;9.226;2023-02-10T03:44:20;112160.56;;;-5.51;100.00
3590;BME280;1809;48.470;9.226;2023-02-10T03:46:45;113842.16;;;-5.47;100.00
3590;BME280;1809;48.470;9.226;2023-02-10T03:49:11;115521.88;;;-5.45;100.00
3590;BME280;1809;48.470;9.226;2023-02-10T03:51:36;116861.22;;;-5.46;100.00
3590;BME280;1809;48.470;9.226;2023-02-10T03:54:01;118192.13;;;-5.52;100.00
3590;BME280;1809;48.470;9.226;2023-02-10T03:56:26;120243.75;;;-5.32;100.00
3590;BME280;1809;48.470;9.226;2023-02-10T03:58:52;120902.25;;;-5.39;100.00
3590;BME280;1809;48.470;9.226;2023-02-10T04:01:17;121224.88;;;-5.46;100.00
3590;BME280;1809;48.470;9.226;2023-02-10T04:03:44;122232.44;;;-5.46;100.00
3590;BME280;1809;48.470;9.226;2023-02-10T04:06:09;123599.00;;;-5.34;100.00
3590;BME280;1809;48.470;9.226;2023-02-10T04:08:35;123924.75;;;-5.39;100.00
3590;BME280;1809;48.470;9.226;2023-02-10T04:11:01;124246.28;;;-5.47;100.00
3590;BME280;1809;48.470;9.226;2023-02-10T04:13:27;125627.63;;;-5.29;100.00
3590;BME280;1809;48.470;9.226;2023-02-10T04:16:13;126656.84;;;-5.19;100.00
3590;BME280;1809;48.470;9.226;2023-02-10T04:18:39;126659.00;;;-5.18;100.00
3590;BME280;1809;48.470;9.226;2023-02-10T04:21:06;126663.22;;;-5.16;100.00
3590;BME280;1809;48.470;9.226;2023-02-10T04:23:33;126663.22;;;-5.16;100.00
3590;BME280;1809;48.470;9.226;2023-02-10T04:25:59;126305.66;;;-5.26;100.00
3590;BME280;1809;48.470;9.226;2023-02-10T04:28:25;126292.97;;;-5.32;100.00
3590;BME280;1809;48.470;9.226;2023-02-10T04:30:52;126633.56;;;-5.30;100.00
3590;BME280;1809;48.470;9.226;2023-02-10T04:33:17;126633.56;;;-5.30;100.00
3590;BME280;1809;48.470;9.226;2023-02-10T04:35:42;126264.41;;;-5.46;100.00
3590;BME280;1809;48.470;9.226;2023-02-10T04:38:09;126957.22;;;-5.36;100.00
3590;BME280;1809;48.470;9.226;2023-02-10T04:40:35;126599.66;;;-5.47;100.00
3590;BME280;1809;48.470;9.226;2023-02-10T04:43:00;126596.50;;;-5.48;100.00
3590;BME280;1809;48.470;9.226;2023-02-10T04:45:26;126578.44;;;-5.57;100.00
3590;BME280;1809;48.470;9.226;2023-02-10T04:47:51;126918.97;;;-5.55;100.00
3590;BME280;1809;48.470;9.226;2023-02-10T04:50:17;127256.31;;;-5.54;100.00
3590;BME280;1809;48.470;9.226;2023-02-10T04:52:42;127253.16;;;-5.56;100.00
3590;BME280;1809;48.470;9.226;2023-02-10T04:55:07;127945.13;;;-5.47;100.00
3590;BME280;1809;48.470;9.226;2023-02-10T04:57:34;126895.59;;;-5.66;100.00
3590;BME280;1809;48.470;9.226;2023-02-10T04:59:59;126542.44;;;-5.74;100.00
3590;BME280;1809;48.470;9.226;2023-02-10T05:02:24;126546.66;;;-5.72;100.00
3590;BME280;1809;48.470;9.226;2023-02-10T05:04:50;126872.25;;;-5.77;100.00
3590;BME280;1809;48.470;9.226;2023-02-10T05:07:15;126867.97;;;-5.79;100.00
3590;BME280;1809;48.470;9.226;2023-02-10T05:09:40;127548.91;;;-5.75;100.00
3590;BME280;1809;48.470;9.226;2023-02-10T05:12:06;127880.88;;;-5.77;100.00
3590;BME280;1809;48.470;9.226;2023-02-10T05:14:31;128224.69;;;-5.73;100.00
3590;BME280;1809;48.470;9.226;2023-02-10T05:16:56;128911.41;;;-5.67;100.00
3590;BME280;1809;48.470;9.226;2023-02-10T05:19:22;128913.53;;;-5.66;100.00
3590;BME280;1809;48.470;9.226;2023-02-10T05:21:47;129249.97;;;-5.66;100.00
3590;BME280;1809;48.470;9.226;2023-02-10T05:24:12;128895.19;;;-5.74;100.00
3590;BME280;1809;48.470;9.226;2023-02-10T05:26:38;128888.72;;;-5.77;100.00
3590;BME280;1809;48.470;9.226;2023-02-10T05:29:03;129592.97;;;-5.63;100.00
3590;BME280;1809;48.470;9.226;2023-02-10T05:31:28;129933.84;;;-5.61;100.00
3590;BME280;1809;48.470;9.226;2023-02-10T05:33:54;130271.47;;;-5.60;100.00
3590;BME280;1809;48.470;9.226;2023-02-10T05:36:20;129933.84;;;-5.61;100.00
3590;BME280;1809;48.470;9.226;2023-02-10T05:38:45;129922.94;;;-5.66;100.00
3590;BME280;1809;48.470;9.226;2023-02-10T05:41:31;129566.91;;;-5.75;100.00
3590;BME280;1809;48.470;9.226;2023-02-10T05:43:57;129573.44;;;-5.72;100.00
3590;BME280;1809;48.470;9.226;2023-02-10T05:46:22;129558.22;;;-5.79;100.00
3590;BME280;1809;48.470;9.226;2023-02-10T05:48:47;129192.66;;;-5.92;100.00
3590;BME280;1809;48.470;9.226;2023-02-10T05:51:13;129890.31;;;-5.81;100.00
3590;BME280;1809;48.470;9.226;2023-02-10T05:53:38;130587.31;;;-5.70;100.00
3590;BME280;1809;48.470;9.226;2023-02-10T05:56:04;130941.44;;;-5.62;100.00
3590;BME280;1809;48.470;9.226;2023-02-10T05:58:29;131283.56;;;-5.59;100.00
3590;BME280;1809;48.470;9.226;2023-02-10T06:00:57;131279.19;;;-5.61;100.00
3590;BME280;1809;48.470;9.226;2023-02-10T06:03:23;131285.78;;;-5.58;100.00
3590;BME280;1809;48.470;9.226;2023-02-10T06:05:48;131290.16;;;-5.56;100.00
3590;BME280;1809;48.470;9.226;2023-02-10T06:08:13;130943.63;;;-5.61;100.00
3590;BME280;1809;48.470;9.226;2023-02-10T06:10:39;131291.28;;;-5.56;100.00
3590;BME280;1809;48.470;9.226;2023-02-10T06:13:04;130958.97;;;-5.54;100.00
3590;BME280;1809;48.470;9.226;2023-02-10T06:15:30;131318.78;;;-5.43;100.00
3590;BME280;1809;48.470;9.226;2023-02-10T06:17:55;131000.66;;;-5.34;100.00
3590;BME280;1809;48.470;9.226;2023-02-10T06:20:20;130338.09;;;-5.29;100.00
3590;BME280;1809;48.470;9.226;2023-02-10T06:22:46;130012.22;;;-5.24;100.00
3590;BME280;1809;48.470;9.226;2023-02-10T06:25:11;129002.09;;;-5.24;100.00
3590;BME280;1809;48.470;9.226;2023-02-10T06:27:36;127967.63;;;-5.36;100.00
3590;BME280;1809;48.470;9.226;2023-02-10T06:30:02;127280.84;;;-5.43;100.00
3590;BME280;1809;48.470;9.226;2023-02-10T06:32:27;127653.56;;;-5.25;100.00
3590;BME280;1809;48.470;9.226;2023-02-10T06:34:52;127334.13;;;-5.17;100.00
3590;BME280;1809;48.470;9.226;2023-02-10T06:37:18;127027.34;;;-5.03;100.00
3590;BME280;1809;48.470;9.226;2023-02-10T06:39:43;125647.63;;;-5.19;100.00
3590;BME280;1809;48.470;9.226;2023-02-10T06:42:09;124626.16;;;-5.25;100.00
3590;BME280;1809;48.470;9.226;2023-02-10T06:44:34;123950.66;;;-5.27;100.00
3590;BME280;1809;48.470;9.226;2023-02-10T06:46:59;123974.50;;;-5.15;100.00
3590;BME280;1809;48.470;9.226;2023-02-10T06:49:25;123289.72;;;-5.21;100.00
3590;BME280;1809;48.470;9.226;2023-02-10T06:51:50;122605.22;;;-5.27;100.00
3590;BME280;1809;48.470;9.226;2023-02-10T06:54:15;122644.19;;;-5.08;100.00
3590;BME280;1809;48.470;9.226;2023-02-10T06:56:41;127166.63;;;-4.37;100.00
3590;BME280;1809;48.470;9.226;2023-02-10T06:59:10;125730.69;;;-4.79;100.00
3590;BME280;1809;48.470;9.226;2023-02-10T07:01:36;124363.78;;;-4.90;100.00
3590;BME280;1809;48.470;9.226;2023-02-10T07:04:01;123346.44;;;-4.94;100.00
3590;BME280;1809;48.470;9.226;2023-02-10T07:06:26;122330.53;;;-4.97;100.00
3590;BME280;1809;48.470;9.226;2023-02-10T07:08:52;121660.31;;;-4.96;100.00
3590;BME280;1809;48.470;9.226;2023-02-10T07:11:17;120989.16;;;-4.96;100.00
3590;BME280;1809;48.470;9.226;2023-02-10T07:13:42;119978.13;;;-4.97;100.00
3590;BME280;1809;48.470;9.226;2023-02-10T07:16:08;118966.47;;;-4.99;100.00
3590;BME280;1809;48.470;9.226;2023-02-10T07:18:36;118646.47;;;-4.91;100.00
3590;BME280;1809;48.470;9.226;2023-02-10T07:21:02;117308.22;;;-4.89;100.00
3590;BME280;1809;48.470;9.226;2023-02-10T07:23:27;116300.19;;;-4.89;100.00
3590;BME280;1809;48.470;9.226;2023-02-10T07:25:52;115970.38;;;-4.86;100.00
3590;BME280;1809;48.470;9.226;2023-02-10T07:28:18;115316.50;;;-4.77;100.00
3590;BME280;1809;48.470;9.226;2023-02-10T07:30:43;114315.53;;;-4.74;100.00
3590;BME280;1809;48.470;9.226;2023-02-10T07:33:08;113661.56;;;-4.65;100.00
3590;BME280;1809;48.470;9.226;2023-02-10T07:35:34;112323.47;;;-4.63;100.00
3590;BME280;1809;48.470;9.226;2023-02-10T07:37:59;110988.59;;;-4.59;100.00
3590;BME280;1809;48.470;9.226;2023-02-10T07:40:24;110346.56;;;-4.44;100.00
3590;BME280;1809;48.470;9.226;2023-02-10T07:42:54;108345.13;;;-4.38;100.00
3590;BME280;1809;48.470;9.226;2023-02-10T07:45:19;106021.88;;;-4.25;100.00
3590;BME280;1809;48.470;9.226;2023-02-10T07:47:44;104354.19;;;-4.21;100.00
3590;BME280;1809;48.470;9.226;2023-02-10T07:50:09;102685.38;;;-4.18;100.00
3590;BME280;1809;48.470;9.226;2023-02-10T07:52:35;101356.84;;;-4.12;100.00
3590;BME280;1809;48.470;9.226;2023-02-10T07:55:00;100704.38;;;-4.02;100.00
3590;BME280;1809;48.470;9.226;2023-02-10T07:57:28;100053.47;;;-3.91;100.00
3590;BME280;1809;48.470;9.226;2023-02-10T07:59:53;98733.31;;;-3.80;100.00
3590;BME280;1809;48.470;9.226;2023-02-10T08:02:18;97091.53;;;-3.61;100.00
3590;BME280;1809;48.470;9.226;2023-02-10T08:04:43;94083.09;;;-3.60;100.00
3590;BME280;1809;48.470;9.226;2023-02-10T08:07:09;91748.19;;;-3.58;100.00
3590;BME280;1809;48.470;9.226;2023-02-10T08:09:35;90431.91;;;-3.45;100.00
3590;BME280;1809;48.470;9.226;2023-02-10T08:12:01;89103.78;;;-3.40;100.00
3590;BME280;1809;48.470;9.226;2023-02-10T08:14:26;87443.63;;;-3.34;100.00
3590;BME280;1809;48.470;9.226;2023-02-10T08:16:51;85783.94;;;-3.28;100.00
3590;BME280;1809;48.470;9.226;2023-02-10T08:19:17;85124.53;;;-3.22;100.00
3590;BME280;1809;48.470;9.226;2023-02-10T08:21:42;84474.25;;;-3.10;100.00
3590;BME280;1809;48.470;9.226;2023-02-10T08:24:08;83482.69;;;-3.03;100.00
3590;BME280;1809;48.470;9.226;2023-02-10T08:26:33;83161.56;;;-2.94;100.00
3590;BME280;1809;48.470;9.226;2023-02-10T08:28:59;83846.69;;;-2.81;100.00
3590;BME280;1809;48.470;9.226;2023-02-10T08:31:25;84870.97;;;-2.64;100.00
3590;BME280;1809;48.470;9.226;2023-02-10T08:33:50;84894.84;;;-2.47;100.00
3590;BME280;1809;48.470;9.226;2023-02-10T08:36:18;83256.47;;;-2.25;100.00
3590;BME280;1809;48.470;9.226;2023-02-10T08:38:44;81942.72;;;-2.08;100.00
3590;BME280;1809;48.470;9.226;2023-02-10T08:41:10;79291.09;;;-1.94;100.00
3590;BME280;1809;48.470;9.226;2023-02-10T08:43:36;76318.09;;;-1.71;100.00
3590;BME280;1809;48.470;9.226;2023-02-10T08:46:01;71992.03;;;-1.65;100.00
3590;BME280;1809;48.470;9.226;2023-02-10T08:48:27;67673.94;;;-1.56;100.00
3590;BME280;1809;48.470;9.226;2023-02-10T08:50:53;65026.66;;;-1.43;100.00
3590;BME280;1809;48.470;9.226;2023-02-10T08:53:20;58054.28;;;-1.38;100.00
3590;BME280;1809;48.470;9.226;2023-02-10T08:56:06;51771.16;;;-1.17;100.00
3590;BME280;1809;48.470;9.226;2023-02-10T08:58:32;43173.66;;;-1.04;100.00
3590;BME280;1809;48.470;9.226;2023-02-10T09:00:57;31959.09;;;-0.86;100.00
3590;BME280;1809;48.470;9.226;2023-02-10T09:03:23;17495.22;;;-0.52;100.00
3590;BME280;1809;48.470;9.226;2023-02-10T09:05:48;-3456.38;;;-0.44;100.00
3590;BME280;1809;48.470;9.226;2023-02-10T09:08:15;-16162.53;;;-0.23;100.00
3590;BME280;1809;48.470;9.226;2023-02-10T09:10:42;-16163.38;;;-0.20;100.00
3590;BME280;1809;48.470;9.226;2023-02-10T09:13:07;-16165.91;;;-0.11;100.00
3590;BME280;1809;48.470;9.226;2023-02-10T09:15:40;-16176.03;;;0.26;100.00
3590;BME280;1809;48.470;9.226;2023-02-10T09:18:06;-16176.34;;;0.27;100.00
3590;BME280;1809;48.470;9.226;2023-02-10T09:20:32;-16179.44;;;0.38;100.00
3590;BME280;1809;48.470;9.226;2023-02-10T09:22:57;-16183.53;;;0.52;100.00
3590;BME280;1809;48.470;9.226;2023-02-10T09:25:23;-16190.84;;;0.79;100.00
3590;BME280;1809;48.470;9.226;2023-02-10T09:27:51;-16193.09;;;0.87;100.00
3590;BME280;1809;48.470;9.226;2023-02-10T09:30:16;-16198.59;;;1.06;100.00
3590;BME280;1809;48.470;9.226;2023-02-10T09:32:42;-16194.22;;;0.91;100.00
3590;BME280;1809;48.470;9.226;2023-02-10T09:35:07;-16196.34;;;0.98;100.00
3590;BME280;1809;48.470;9.226;2023-02-10T09:37:32;-16202.53;;;1.21;100.00
3590;BME280;1809;48.470;9.226;2023-02-10T09:39:58;-16200.00;;;1.12;100.00
3590;BME280;1809;48.470;9.226;2023-02-10T09:45:14;-16205.94;;;1.33;100.00
3590;BME280;1809;48.470;9.226;2023-02-10T09:47:51;-16210.00;;;1.47;100.00
3590;BME280;1809;48.470;9.226;2023-02-10T09:53:02;-16219.16;;;1.80;100.00
3590;BME280;1809;48.470;9.226;2023-02-10T09:55:38;-16219.44;;;1.81;100.00
3590;BME280;1809;48.470;9.226;2023-02-10T09:58:21;-16216.91;;;1.72;100.00
3590;BME280;1809;48.470;9.226;2023-02-10T10:01:03;-16220.00;;;1.83;100.00
3590;BME280;1809;48.470;9.226;2023-02-10T10:03:38;-16222.28;;;1.91;100.00
3590;BME280;1809;48.470;9.226;2023-02-10T10:06:20;-16228.75;;;2.14;100.00
3590;BME280;1809;48.470;9.226;2023-02-10T10:11:48;-16231.00;;;2.23;100.00
3590;BME280;1809;48.470;9.226;2023-02-10T10:20:03;-16229.72;;;2.18;100.00
3590;BME280;1809;48.470;9.226;2023-02-10T10:25:47;-16245.50;;;2.75;100.00
3590;BME280;1809;48.470;9.226;2023-02-10T10:28:39;-16247.47;;;2.82;100.00
3590;BME280;1809;48.470;9.226;2023-02-10T10:31:13;-16252.41;;;2.99;100.00
3590;BME280;1809;48.470;9.226;2023-02-10T10:33:53;-16254.81;;;3.08;100.00
3590;BME280;1809;48.470;9.226;2023-02-10T10:36:30;-16253.81;;;3.04;100.00
3590;BME280;1809;48.470;9.226;2023-02-10T10:39:45;-16252.41;;;2.99;100.00
3590;BME280;1809;48.470;9.226;2023-02-10T10:41:45;-16251.44;;;2.96;100.00
3590;BME280;1809;48.470;9.226;2023-02-10T10:44:15;-16257.19;;;3.16;100.00
3590;BME280;1809;48.470;9.226;2023-02-10T10:49:10;-16254.94;;;3.08;100.00
3590;BME280;1809;48.470;9.226;2023-02-10T10:51:36;-16258.31;;;3.20;100.00
3590;BME280;1809;48.470;9.226;2023-02-10T10:54:05;-16263.69;;;3.40;100.00
3590;BME280;1809;48.470;9.226;2023-02-10T10:56:44;-16267.91;;;3.55;100.00
3590;BME280;1809;48.470;9.226;2023-02-10T11:01:40;-16272.69;;;3.72;100.00
3590;BME280;1809;48.470;9.226;2023-02-10T11:06:36;-16274.66;;;3.79;100.00
3590;BME280;1809;48.470;9.226;2023-02-10T11:09:04;-16279.72;;;3.97;100.00
3590;BME280;1809;48.470;9.226;2023-02-10T11:11:37;-16281.28;;;4.03;100.00
3590;BME280;1809;48.470;9.226;2023-02-10T11:14:13;-16281.41;;;4.03;100.00
3590;BME280;1809;48.470;9.226;2023-02-10T11:16:41;-16287.91;;;4.26;100.00
3590;BME280;1809;48.470;9.226;2023-02-10T11:19:20;-16284.22;;;4.13;100.00
3590;BME280;1809;48.470;9.226;2023-02-10T11:21:46;-16283.94;;;4.12;100.00
3590;BME280;1809;48.470;9.226;2023-02-10T11:27:12;-16291.00;;;4.38;100.00
3590;BME280;1809;48.470;9.226;2023-02-10T11:29:46;-16295.50;;;4.54;100.00
3590;BME280;1809;48.470;9.226;2023-02-10T11:32:21;-16297.19;;;4.60;100.00
3590;BME280;1809;48.470;9.226;2023-02-10T11:34:48;-16296.75;;;4.58;100.00
3590;BME280;1809;48.470;9.226;2023-02-10T11:37:26;-16295.22;;;4.53;100.00
3590;BME280;1809;48.470;9.226;2023-02-10T11:39:53;-16296.91;;;4.59;100.00
3590;BME280;1809;48.470;9.226;2023-02-10T11:42:30;-16296.63;;;4.58;100.00
3590;BME280;1809;48.470;9.226;2023-02-10T11:45:02;-16301.97;;;4.77;100.00
3590;BME280;1809;48.470;9.226;2023-02-10T11:47:31;-16302.81;;;4.80;100.00
3590;BME280;1809;48.470;9.226;2023-02-10T11:49:57;-16296.91;;;4.59;100.00
3590;BME280;1809;48.470;9.226;2023-02-10T11:52:24;-16297.75;;;4.62;100.00
3590;BME280;1809;48.470;9.226;2023-02-10T11:54:51;-16301.13;;;4.74;100.00
3590;BME280;1809;48.470;9.226;2023-02-10T12:08:07;-16305.78;;;4.91;100.00
3590;BME280;1809;48.470;9.226;2023-02-10T12:10:49;-16308.88;;;5.02;100.00
3590;BME280;1809;48.470;9.226;2023-02-10T12:13:30;-16308.31;;;5.00;100.00
3590;BME280;1809;48.470;9.226;2023-02-10T12:27:22;-16305.63;;;4.90;100.00
3590;BME280;1809;48.470;9.226;2023-02-10T12:30:09;-16307.88;;;4.98;100.00
3590;BME280;1809;48.470;9.226;2023-02-10T12:33:24;-16310.84;;;5.09;100.00
3590;BME280;1809;48.470;9.226;2023-02-10T12:44:09;-16313.09;;;5.17;100.00
3590;BME280;1809;48.470;9.226;2023-02-10T12:46:48;-16311.25;;;5.10;100.00
3590;BME280;1809;48.470;9.226;2023-02-10T12:49:40;-16313.09;;;5.17;100.00
3590;BME280;1809;48.470;9.226;2023-02-10T12:52:14;-16310.13;;;5.06;100.00
3590;BME280;1809;48.470;9.226;2023-02-10T12:55:02;-16312.94;;;5.16;100.00
3590;BME280;1809;48.470;9.226;2023-02-10T13:00:36;-16314.63;;;5.22;100.00
3590;BME280;1809;48.470;9.226;2023-02-10T13:03:19;-16319.16;;;5.38;100.00
3590;BME280;1809;48.470;9.226;2023-02-10T13:05:51;-16318.84;;;5.37;100.00
3590;BME280;1809;48.470;9.226;2023-02-10T13:08:39;-16321.94;;;5.49;100.00
3590;BME280;1809;48.470;9.226;2023-02-10T13:11:21;-16323.78;;;5.55;100.00
3590;BME280;1809;48.470;9.226;2023-02-10T13:13:50;-16325.06;;;5.60;100.00
3590;BME280;1809;48.470;9.226;2023-02-10T13:16:18;-16322.25;;;5.50;100.00
3590;BME280;1809;48.470;9.226;2023-02-10T13:24:18;-16318.44;;;5.36;100.00
3590;BME280;1809;48.470;9.226;2023-02-10T13:29:42;-16312.66;;;5.15;100.00
3590;BME280;1809;48.470;9.226;2023-02-10T13:34:42;-16315.75;;;5.26;100.00
3590;BME280;1809;48.470;9.226;2023-02-10T13:37:21;-16317.44;;;5.32;100.00
3590;BME280;1809;48.470;9.226;2023-02-10T13:39:52;-16319.84;;;5.41;100.00
3590;BME280;1809;48.470;9.226;2023-02-10T13:42:31;-16327.31;;;5.68;100.00
3590;BME280;1809;48.470;9.226;2023-02-10T13:47:42;-16325.75;;;5.62;100.00
3590;BME280;1809;48.470;9.226;2023-02-10T13:52:51;-16327.44;;;5.68;100.00
3590;BME280;1809;48.470;9.226;2023-02-10T13:58:15;-16327.59;;;5.69;100.00
3590;BME280;1809;48.470;9.226;2023-02-10T14:00:49;-16331.81;;;5.84;100.00
3590;BME280;1809;48.470;9.226;2023-02-10T14:08:40;-16325.34;;;5.61;100.00
3590;BME280;1809;48.470;9.226;2023-02-10T14:13:55;-16328.00;;;5.70;100.00
3590;BME280;1809;48.470;9.226;2023-02-10T14:18:58;-16326.75;;;5.66;100.00
3590;BME280;1809;48.470;9.226;2023-02-10T14:21:24;-16323.50;;;5.54;100.00
3590;BME280;1809;48.470;9.226;2023-02-10T14:23:53;-16327.59;;;5.69;100.00
3590;BME280;1809;48.470;9.226;2023-02-10T14:26:22;-16325.63;;;5.62;100.00
3590;BME280;1809;48.470;9.226;2023-02-10T14:28:53;-16327.59;;;5.69;100.00
3590;BME280;1809;48.470;9.226;2023-02-10T14:31:31;-16328.00;;;5.70;100.00
3590;BME280;1809;48.470;9.226;2023-02-10T14:34:03;-16323.63;;;5.55;100.00
3590;BME280;1809;48.470;9.226;2023-02-10T14:36:28;-16323.78;;;5.55;100.00
3590;BME280;1809;48.470;9.226;2023-02-10T14:38:56;-16325.47;;;5.61;100.00
3590;BME280;1809;48.470;9.226;2023-02-10T14:41:23;-16327.03;;;5.67;100.00
3590;BME280;1809;48.470;9.226;2023-02-10T14:43:49;-16323.38;;;5.54;100.00
3590;BME280;1809;48.470;9.226;2023-02-10T14:46:23;-16325.91;;;5.63;100.00
3590;BME280;1809;48.470;9.226;2023-02-10T14:49:10;-16328.56;;;5.72;100.00
3590;BME280;1809;48.470;9.226;2023-02-10T14:51:42;-16325.63;;;5.62;100.00
3590;BME280;1809;48.470;9.226;2023-02-10T14:54:18;-16322.66;;;5.51;94.96
3590;BME280;1809;48.470;9.226;2023-02-10T14:59:19;-16323.50;;;5.54;87.55
3590;BME280;1809;48.470;9.226;2023-02-10T15:01:45;-16323.09;;;5.53;90.10
3590;BME280;1809;48.470;9.226;2023-02-10T15:04:14;-16320.84;;;5.45;87.22